createdAt,value
2023-04-01T00:00:01.588Z,11.10
2023-04-01T00:02:28.480Z,11.10
2023-04-01T00:04:55.356Z,11.10
2023-04-01T00:07:22.173Z,11.10
2023-04-01T00:09:49.077Z,11.00
2023-04-01T00:12:15.912Z,11.10
2023-04-01T00:14:42.774Z,11.00
2023-04-01T00:17:09.612Z,11.00
2023-04-01T00:19:36.480Z,11.00
2023-04-01T00:22:03.930Z,10.90
2023-04-01T00:24:30.841Z,10.90
2023-04-01T00:26:57.658Z,10.90
2023-04-01T00:29:25.512Z,10.90
2023-04-01T00:31:52.444Z,10.90
2023-04-01T00:34:19.294Z,10.80
2023-04-01T00:36:46.105Z,10.80
2023-04-01T00:39:12.967Z,10.80
2023-04-01T00:41:39.940Z,10.80
2023-04-01T00:44:23.232Z,10.80
2023-04-01T00:46:51.350Z,10.80
2023-04-01T00:49:23.389Z,10.80
2023-04-01T00:51:58.235Z,10.70
2023-04-01T00:54:27.490Z,10.80
2023-04-01T00:57:14.251Z,10.70
2023-04-01T00:59:47.323Z,10.70
2023-04-01T01:02:16.925Z,10.70
2023-04-01T01:04:43.749Z,10.70
2023-04-01T01:07:20.503Z,10.70
2023-04-01T01:10:20.004Z,10.70
2023-04-01T01:13:18.268Z,10.70
2023-04-01T01:16:02.040Z,10.70
2023-04-01T01:18:43.540Z,10.70
2023-04-01T01:21:47.033Z,10.70
2023-04-01T01:24:41.593Z,10.70
2023-04-01T01:27:13.676Z,10.70
2023-04-01T01:29:46.738Z,10.80
2023-04-01T01:32:28.638Z,10.80
2023-04-01T01:35:21.943Z,10.80
2023-04-01T01:37:58.658Z,10.80
2023-04-01T01:40:28.682Z,10.80
2023-04-01T01:43:03.678Z,10.90
2023-04-01T01:45:36.022Z,10.80
2023-04-01T01:48:07.932Z,10.90
2023-04-01T01:50:36.355Z,10.90
2023-04-01T01:53:10.988Z,10.90
2023-04-01T01:55:45.374Z,10.80
2023-04-01T01:58:20.396Z,10.90
2023-04-01T02:00:55.700Z,10.90
2023-04-01T02:03:28.042Z,10.90
2023-04-01T02:05:59.040Z,10.90
2023-04-01T02:08:46.375Z,10.90
2023-04-01T02:11:20.113Z,10.90
2023-04-01T02:13:57.127Z,10.80
2023-04-01T02:16:33.424Z,10.90
2023-04-01T02:19:03.800Z,10.90
2023-04-01T02:21:33.429Z,10.90
2023-04-01T02:24:06.777Z,10.90
2023-04-01T02:26:33.746Z,10.90
2023-04-01T02:29:04.692Z,10.90
2023-04-01T02:31:33.613Z,10.90
2023-04-01T02:34:01.468Z,10.80
2023-04-01T02:36:28.538Z,10.80
2023-04-01T02:39:00.159Z,10.80
2023-04-01T02:41:27.117Z,10.80
2023-04-01T02:43:54.049Z,10.80
2023-04-01T02:46:20.961Z,10.90
2023-04-01T02:48:47.770Z,10.90
2023-04-01T02:51:15.526Z,10.90
2023-04-01T02:53:43.508Z,10.80
2023-04-01T02:56:10.463Z,10.80
2023-04-01T02:58:37.309Z,10.90
2023-04-01T03:01:04.443Z,10.90
2023-04-01T03:03:31.271Z,10.80
2023-04-01T03:05:59.609Z,10.80
2023-04-01T03:08:26.660Z,10.80
2023-04-01T03:10:53.442Z,10.80
2023-04-01T03:13:20.299Z,10.80
2023-04-01T03:15:47.153Z,10.80
2023-04-01T03:18:13.944Z,10.80
2023-04-01T03:20:40.913Z,10.80
2023-04-01T03:23:09.297Z,10.80
2023-04-01T03:25:36.144Z,10.80
2023-04-01T03:28:03.665Z,10.80
2023-04-01T03:30:32.192Z,10.80
2023-04-01T03:33:00.598Z,10.80
2023-04-01T03:35:28.492Z,10.80
2023-04-01T03:37:55.837Z,10.80
2023-04-01T03:40:23.793Z,10.70
2023-04-01T03:42:51.632Z,10.70
2023-04-01T03:45:18.527Z,10.70
2023-04-01T03:47:45.475Z,10.70
2023-04-01T03:50:12.559Z,10.70
2023-04-01T03:52:40.280Z,10.60
2023-04-01T03:55:07.718Z,10.60
2023-04-01T03:57:34.876Z,10.50
2023-04-01T04:00:01.816Z,10.50
2023-04-01T04:02:28.722Z,10.50
2023-04-01T04:04:55.746Z,10.50
2023-04-01T04:07:22.564Z,10.50
2023-04-01T04:09:49.431Z,10.50
2023-04-01T04:12:16.314Z,10.50
2023-04-01T04:14:43.109Z,10.50
2023-04-01T04:17:17.234Z,10.40
2023-04-01T04:19:44.480Z,10.40
2023-04-01T04:22:11.337Z,10.40
2023-04-01T04:24:39.770Z,10.50
2023-04-01T04:27:07.153Z,10.40
2023-04-01T04:29:33.922Z,10.40
2023-04-01T04:32:01.074Z,10.40
2023-04-01T04:34:28.017Z,10.40
2023-04-01T04:36:54.873Z,10.40
2023-04-01T04:39:21.721Z,10.40
2023-04-01T04:41:48.521Z,10.40
2023-04-01T04:44:15.365Z,10.40
2023-04-01T04:46:42.446Z,10.40
2023-04-01T04:49:09.319Z,10.40
2023-04-01T04:51:36.919Z,10.40
2023-04-01T04:54:05.068Z,10.40
2023-04-01T04:56:33.168Z,10.40
2023-04-01T04:59:00.380Z,10.50
2023-04-01T05:01:27.401Z,10.50
2023-04-01T05:03:54.319Z,10.50
2023-04-01T05:06:23.600Z,10.50
2023-04-01T05:08:50.764Z,10.50
2023-04-01T05:11:20.636Z,10.50
2023-04-01T05:13:48.012Z,10.60
2023-04-01T05:16:18.571Z,10.60
2023-04-01T05:18:46.473Z,10.60
2023-04-01T05:21:15.674Z,10.60
2023-04-01T05:23:43.097Z,10.70
2023-04-01T05:26:14.445Z,10.70
2023-04-01T05:28:42.165Z,10.70
2023-04-01T05:31:09.628Z,10.80
2023-04-01T05:33:36.847Z,10.80
2023-04-01T05:36:13.510Z,10.80
2023-04-01T05:38:41.041Z,10.80
2023-04-01T05:41:07.881Z,10.80
2023-04-01T05:43:38.189Z,10.80
2023-04-01T05:46:05.513Z,10.90
2023-04-01T05:48:35.748Z,10.90
2023-04-01T05:51:03.975Z,10.90
2023-04-01T05:53:31.082Z,10.90
2023-04-01T05:55:57.967Z,10.90
2023-04-01T05:58:24.866Z,10.90
2023-04-01T06:01:05.875Z,11.00
2023-04-01T06:03:36.573Z,11.00
2023-04-01T06:06:04.682Z,11.00
2023-04-01T06:08:33.033Z,11.10
2023-04-01T06:11:18.078Z,11.10
2023-04-01T06:14:06.131Z,11.10
2023-04-01T06:17:28.981Z,11.20
2023-04-01T06:20:18.798Z,11.20
2023-04-01T06:22:54.539Z,11.30
2023-04-01T06:25:36.403Z,11.30
2023-04-01T06:28:14.942Z,11.30
2023-04-01T06:30:52.681Z,11.40
2023-04-01T06:33:31.010Z,11.30
2023-04-01T06:36:20.974Z,11.40
2023-04-01T06:39:19.381Z,11.40
2023-04-01T06:42:16.941Z,11.50
2023-04-01T06:45:32.433Z,11.50
2023-04-01T06:48:24.305Z,11.50
2023-04-01T06:51:27.381Z,11.50
2023-04-01T06:54:11.497Z,11.60
2023-04-01T06:56:43.689Z,11.60
2023-04-01T06:59:29.659Z,11.70
2023-04-01T07:02:04.539Z,11.70
2023-04-01T07:04:37.153Z,11.70
2023-04-01T07:07:16.549Z,11.80
2023-04-01T07:09:51.784Z,11.80
2023-04-01T07:12:34.943Z,11.90
2023-04-01T07:15:25.819Z,11.90
2023-04-01T07:18:06.629Z,12.00
2023-04-01T07:20:37.605Z,12.20
2023-04-01T07:23:11.923Z,12.20
2023-04-01T07:25:46.970Z,12.30
2023-04-01T07:28:23.393Z,12.30
2023-04-01T07:31:11.476Z,12.40
2023-04-01T07:33:54.573Z,12.40
2023-04-01T07:37:02.241Z,12.50
2023-04-01T07:39:42.762Z,12.50
2023-04-01T07:42:40.681Z,12.60
2023-04-01T07:45:43.185Z,12.60
2023-04-01T07:48:40.546Z,12.60
2023-04-01T07:51:27.904Z,12.70
2023-04-01T07:54:12.926Z,12.80
2023-04-01T07:57:04.317Z,12.90
2023-04-01T08:00:07.691Z,12.80
2023-04-01T08:03:09.560Z,12.90
2023-04-01T08:06:04.201Z,12.90
2023-04-01T08:09:14.707Z,13.00
2023-04-01T08:12:14.803Z,13.00
2023-04-01T08:15:02.412Z,13.10
2023-04-01T08:18:07.150Z,13.20
2023-04-01T08:20:53.577Z,13.30
2023-04-01T08:23:34.877Z,13.40
2023-04-01T08:26:30.927Z,13.40
2023-04-01T08:29:05.638Z,13.50
2023-04-01T08:31:44.311Z,13.50
2023-04-01T08:34:36.974Z,13.60
2023-04-01T08:37:18.613Z,13.70
2023-04-01T08:40:02.441Z,13.80
2023-04-01T08:43:17.530Z,14.00
2023-04-01T08:46:28.271Z,14.50
2023-04-01T08:49:09.699Z,15.00
2023-04-01T08:52:14.069Z,15.50
2023-04-01T08:55:25.097Z,15.90
2023-04-01T08:58:23.438Z,16.10
2023-04-01T09:00:59.081Z,16.20
2023-04-01T09:04:00.740Z,16.10
2023-04-01T09:06:40.669Z,16.00
2023-04-01T09:09:36.938Z,16.00
2023-04-01T09:12:32.332Z,16.00
2023-04-01T09:15:47.983Z,16.20
2023-04-01T09:19:11.624Z,16.50
2023-04-01T09:22:10.866Z,16.80
2023-04-01T09:25:02.570Z,16.80
2023-04-01T09:27:44.049Z,16.80
2023-04-01T09:30:46.768Z,17.00
2023-04-01T09:33:53.438Z,17.30
2023-04-01T09:36:31.538Z,17.60
2023-04-01T09:39:20.299Z,17.70
2023-04-01T09:42:33.303Z,17.50
2023-04-01T09:45:09.720Z,17.30
2023-04-01T09:47:42.075Z,17.00
2023-04-01T09:50:52.406Z,16.80
2023-04-01T09:53:44.466Z,16.50
2023-04-01T09:56:47.933Z,16.40
2023-04-01T09:59:41.952Z,16.20
2023-04-01T10:02:51.307Z,16.00
2023-04-01T10:05:46.180Z,16.00
2023-04-01T10:08:33.607Z,16.00
2023-04-01T10:11:33.119Z,16.00
2023-04-01T10:14:28.428Z,16.00
2023-04-01T10:17:36.728Z,16.10
2023-04-01T10:20:29.780Z,16.00
2023-04-01T10:23:11.449Z,16.00
2023-04-01T10:25:50.444Z,16.00
2023-04-01T10:28:48.405Z,15.90
2023-04-01T10:31:55.841Z,15.90
2023-04-01T10:34:59.196Z,15.90
2023-04-01T10:38:14.181Z,15.80
2023-04-01T10:41:05.657Z,15.80
2023-04-01T10:44:00.641Z,15.80
2023-04-01T10:47:05.224Z,15.90
2023-04-01T10:50:07.829Z,16.00
2023-04-01T10:53:18.959Z,16.00
2023-04-01T10:56:13.578Z,16.00
2023-04-01T10:59:27.065Z,15.90
2023-04-01T11:02:34.798Z,15.90
2023-04-01T11:05:27.637Z,15.80
2023-04-01T11:08:51.519Z,15.70
2023-04-01T11:12:15.920Z,15.70
2023-04-01T11:15:39.917Z,15.60
2023-04-01T11:18:48.861Z,15.50
2023-04-01T11:22:02.485Z,15.40
2023-04-01T11:24:41.436Z,15.30
2023-04-01T11:28:05.903Z,15.10
2023-04-01T11:31:10.549Z,15.00
2023-04-01T11:33:54.236Z,14.90
2023-04-01T11:36:29.604Z,14.80
2023-04-01T11:39:39.786Z,14.70
2023-04-01T11:42:50.240Z,14.60
2023-04-01T11:45:40.793Z,14.60
2023-04-01T11:48:45.951Z,14.60
2023-04-01T11:51:31.812Z,14.60
2023-04-01T11:54:25.303Z,14.50
2023-04-01T11:57:28.898Z,14.50
2023-04-01T12:00:53.142Z,14.30
2023-04-01T12:03:53.811Z,14.20
2023-04-01T12:07:09.597Z,14.00
2023-04-01T12:10:13.469Z,13.80
2023-04-01T12:13:00.636Z,13.60
2023-04-01T12:16:16.646Z,13.40
2023-04-01T12:19:30.521Z,13.10
2023-04-01T12:22:37.416Z,12.90
2023-04-01T12:25:54.167Z,12.60
2023-04-01T12:28:48.617Z,12.30
2023-04-01T12:31:28.471Z,12.10
2023-04-01T12:34:15.037Z,12.00
2023-04-01T12:37:09.874Z,11.80
2023-04-01T12:40:02.245Z,11.70
2023-04-01T12:42:51.422Z,11.60
2023-04-01T12:45:34.487Z,11.40
2023-04-01T12:48:36.913Z,11.30
2023-04-01T12:51:38.380Z,11.30
2023-04-01T12:54:48.357Z,11.20
2023-04-01T12:57:42.449Z,11.10
2023-04-01T13:00:45.922Z,11.10
2023-04-01T13:03:47.017Z,11.00
2023-04-01T13:06:35.579Z,11.00
2023-04-01T13:09:52.026Z,11.00
2023-04-01T13:12:53.279Z,10.90
2023-04-01T13:15:43.055Z,10.80
2023-04-01T13:18:50.315Z,10.80
2023-04-01T13:21:42.665Z,10.80
2023-04-01T13:25:15.702Z,10.70
2023-04-01T13:27:50.762Z,10.70
2023-04-01T13:30:48.807Z,10.70
2023-04-01T13:33:34.429Z,10.70
2023-04-01T13:36:43.571Z,10.60
2023-04-01T13:39:31.723Z,10.60
2023-04-01T13:42:36.379Z,10.60
2023-04-01T13:45:25.643Z,10.60
2023-04-01T13:48:27.742Z,10.60
2023-04-01T13:51:18.842Z,10.70
2023-04-01T13:54:28.530Z,10.70
2023-04-01T13:57:34.547Z,10.70
2023-04-01T14:01:01.627Z,10.70
2023-04-01T14:03:55.954Z,10.70
2023-04-01T14:06:39.913Z,10.80
2023-04-01T14:09:22.167Z,10.80
2023-04-01T14:12:14.744Z,10.90
2023-04-01T14:15:23.565Z,11.00
2023-04-01T14:18:10.310Z,11.10
2023-04-01T14:21:19.863Z,11.10
2023-04-01T14:24:00.640Z,11.20
2023-04-01T14:27:06.391Z,11.20
2023-04-01T14:29:49.292Z,11.20
2023-04-01T14:33:24.778Z,11.20
2023-04-01T14:36:36.358Z,11.20
2023-04-01T14:39:46.592Z,11.20
2023-04-01T14:42:22.312Z,11.20
2023-04-01T14:45:32.741Z,11.20
2023-04-01T14:48:29.774Z,11.20
2023-04-01T14:51:10.401Z,11.30
2023-04-01T14:54:09.748Z,11.30
2023-04-01T14:56:45.902Z,11.30
2023-04-01T14:59:29.656Z,11.40
2023-04-01T15:02:44.580Z,11.40
2023-04-01T15:05:49.158Z,11.40
2023-04-01T15:08:23.372Z,11.40
2023-04-01T15:11:07.003Z,11.40
2023-04-01T15:14:07.881Z,11.40
2023-04-01T15:17:24.996Z,11.40
2023-04-01T15:20:21.731Z,11.40
2023-04-01T15:23:23.098Z,11.40
2023-04-01T15:26:19.083Z,11.30
2023-04-01T15:29:18.788Z,11.30
2023-04-01T15:32:09.008Z,11.20
2023-04-01T15:35:13.909Z,11.20
2023-04-01T15:38:10.355Z,11.10
2023-04-01T15:41:05.285Z,11.10
2023-04-01T15:43:51.052Z,11.10
2023-04-01T15:46:42.179Z,11.20
2023-04-01T15:49:21.317Z,11.20
2023-04-01T15:52:37.792Z,11.30
2023-04-01T15:55:34.087Z,11.30
2023-04-01T15:58:47.161Z,11.30
2023-04-01T16:01:16.835Z,11.40
2023-04-01T16:04:12.148Z,11.50
2023-04-01T16:07:21.777Z,11.50
2023-04-01T16:10:26.474Z,11.60
2023-04-01T16:13:29.318Z,11.60
2023-04-01T16:16:30.296Z,11.60
2023-04-01T16:19:09.164Z,11.70
2023-04-01T16:22:13.577Z,11.80
2023-04-01T16:25:15.549Z,11.80
2023-04-01T16:27:56.353Z,11.80
2023-04-01T16:30:39.806Z,11.80
2023-04-01T16:33:39.230Z,11.80
2023-04-01T16:36:20.621Z,11.90
2023-04-01T16:39:41.816Z,11.90
2023-04-01T16:42:11.573Z,11.90
2023-04-01T16:45:22.630Z,12.00
2023-04-01T16:47:57.169Z,12.00
2023-04-01T16:50:32.795Z,12.10
2023-04-01T16:53:12.288Z,12.10
2023-04-01T16:56:23.910Z,12.00
2023-04-01T16:59:35.763Z,12.10
2023-04-01T17:02:15.502Z,12.10
2023-04-01T17:04:52.726Z,12.00
2023-04-01T17:07:43.423Z,12.00
2023-04-01T17:10:37.879Z,12.00
2023-04-01T17:13:51.549Z,11.90
2023-04-01T17:17:09.987Z,11.90
2023-04-01T17:20:08.052Z,11.90
2023-04-01T17:22:56.958Z,11.90
2023-04-01T17:26:00.867Z,11.90
2023-04-01T17:28:51.857Z,11.80
2023-04-01T17:31:41.297Z,11.90
2023-04-01T17:34:17.397Z,11.90
2023-04-01T17:37:08.628Z,11.80
2023-04-01T17:40:14.788Z,11.80
2023-04-01T17:43:33.829Z,11.80
2023-04-01T17:46:41.762Z,11.80
2023-04-01T17:49:42.649Z,11.80
2023-04-01T17:52:27.452Z,11.80
2023-04-01T17:55:26.225Z,11.80
2023-04-01T17:58:23.079Z,11.80
2023-04-01T18:01:41.712Z,11.80
2023-04-01T18:04:18.673Z,11.80
2023-04-01T18:06:58.730Z,11.80
2023-04-01T18:09:40.578Z,11.80
2023-04-01T18:12:56.976Z,11.80
2023-04-01T18:16:02.594Z,11.80
2023-04-01T18:19:00.831Z,11.80
2023-04-01T18:21:42.815Z,11.80
2023-04-01T18:24:41.414Z,11.80
2023-04-01T18:27:23.131Z,11.80
2023-04-01T18:30:00.435Z,11.80
2023-04-01T18:32:49.092Z,11.80
2023-04-01T18:35:28.114Z,11.80
2023-04-01T18:38:04.091Z,11.70
2023-04-01T18:40:41.877Z,11.60
2023-04-01T18:43:44.823Z,11.50
2023-04-01T18:46:27.460Z,11.40
2023-04-01T18:50:03.660Z,11.30
2023-04-01T18:52:45.728Z,11.20
2023-04-01T18:55:15.702Z,11.00
2023-04-01T18:57:57.789Z,10.90
2023-04-01T19:00:39.674Z,10.90
2023-04-01T19:03:33.782Z,10.80
2023-04-01T19:06:18.060Z,10.70
2023-04-01T19:08:45.927Z,10.70
2023-04-01T19:11:50.771Z,10.70
2023-04-01T19:14:43.919Z,10.70
2023-04-01T19:17:55.830Z,10.70
2023-04-01T19:21:04.564Z,10.70
2023-04-01T19:24:18.160Z,10.70
2023-04-01T19:27:04.018Z,10.70
2023-04-01T19:30:05.624Z,10.70
2023-04-01T19:32:44.478Z,10.70
2023-04-01T19:35:37.158Z,10.70
2023-04-01T19:38:40.219Z,10.70
2023-04-01T19:41:18.810Z,10.80
2023-04-01T19:44:25.842Z,10.80
2023-04-01T19:47:41.118Z,10.80
2023-04-01T19:50:28.292Z,10.90
2023-04-01T19:53:02.232Z,11.00
2023-04-01T19:55:57.172Z,11.00
2023-04-01T19:58:46.869Z,11.00
2023-04-01T20:01:27.140Z,11.10
2023-04-01T20:04:09.175Z,11.10
2023-04-01T20:06:49.788Z,11.10
2023-04-01T20:09:54.519Z,11.10
2023-04-01T20:12:43.657Z,11.10
2023-04-01T20:15:33.827Z,11.00
2023-04-01T20:18:26.020Z,11.00
2023-04-01T20:21:07.335Z,11.00
2023-04-01T20:23:45.101Z,10.90
2023-04-01T20:26:15.080Z,10.90
2023-04-01T20:29:41.192Z,10.80
2023-04-01T20:32:24.694Z,10.80
2023-04-01T20:35:36.953Z,10.80
2023-04-01T20:38:40.139Z,10.70
2023-04-01T20:41:24.462Z,10.70
2023-04-01T20:44:15.354Z,10.70
2023-04-01T20:47:08.063Z,10.70
2023-04-01T20:50:01.419Z,10.70
2023-04-01T20:52:42.112Z,10.70
2023-04-01T20:55:27.759Z,10.70
2023-04-01T20:58:09.460Z,10.70
2023-04-01T21:00:54.569Z,10.60
2023-04-01T21:03:59.646Z,10.70
2023-04-01T21:06:38.731Z,10.70
2023-04-01T21:09:50.222Z,10.70
2023-04-01T21:12:57.544Z,10.60
2023-04-01T21:15:48.726Z,10.70
2023-04-01T21:18:39.665Z,10.70
2023-04-01T21:21:21.382Z,10.70
2023-04-01T21:24:45.574Z,10.70
2023-04-01T21:27:24.288Z,10.70
2023-04-01T21:30:54.251Z,10.70
2023-04-01T21:33:23.812Z,10.70
2023-04-01T21:36:18.008Z,10.70
2023-04-01T21:39:11.992Z,10.70
2023-04-01T21:41:59.877Z,10.70
2023-04-01T21:44:51.139Z,10.80
2023-04-01T21:48:09.930Z,10.80
2023-04-01T21:51:24.348Z,10.80
2023-04-01T21:54:52.051Z,10.80
2023-04-01T21:58:14.166Z,10.80
2023-04-01T22:01:06.931Z,10.80
2023-04-01T22:04:05.819Z,10.90
2023-04-01T22:06:58.062Z,10.90
2023-04-01T22:09:40.071Z,10.80
2023-04-01T22:12:39.095Z,10.80
2023-04-01T22:15:26.326Z,10.80
2023-04-01T22:18:05.357Z,10.90
2023-04-01T22:21:06.311Z,10.90
2023-04-01T22:23:52.726Z,10.90
2023-04-01T22:26:49.586Z,10.90
2023-04-01T22:29:38.222Z,10.90
2023-04-01T22:32:36.510Z,10.90
2023-04-01T22:35:25.144Z,10.90
2023-04-01T22:38:07.173Z,10.90
2023-04-01T22:40:59.015Z,10.90
2023-04-01T22:43:40.665Z,10.90
2023-04-01T22:46:25.907Z,11.00
2023-04-01T22:49:23.655Z,10.90
2023-04-01T22:52:06.493Z,10.90
2023-04-01T22:54:57.167Z,11.00
2023-04-01T22:57:59.457Z,10.90
2023-04-01T23:00:44.127Z,10.90
2023-04-01T23:03:33.056Z,11.00
2023-04-01T23:06:03.468Z,11.00
2023-04-01T23:08:42.420Z,11.00
2023-04-01T23:11:18.971Z,11.00
2023-04-01T23:13:58.927Z,11.00
2023-04-01T23:16:47.898Z,11.00
2023-04-01T23:19:48.261Z,11.00
2023-04-01T23:22:37.398Z,11.00
2023-04-01T23:25:31.717Z,11.00
2023-04-01T23:28:16.990Z,11.00
2023-04-01T23:30:43.878Z,11.10
2023-04-01T23:33:19.999Z,11.00
2023-04-01T23:36:06.635Z,11.00
2023-04-01T23:38:42.306Z,11.00
2023-04-01T23:41:27.182Z,11.00
2023-04-01T23:44:04.987Z,11.00
2023-04-01T23:46:35.934Z,11.00
2023-04-01T23:49:07.163Z,11.00
2023-04-01T23:51:47.428Z,11.00
2023-04-01T23:55:29.634Z,11.00
2023-04-01T23:58:02.637Z,11.00
